sensor_id;sensor_type;location;lat;lon;timestamp;temperature;humidity
18388;DHT22;9320;50.256;19.026;2023-05-07T00:00:40;11.80;99.90
18388;DHT22;9320;50.256;19.026;2023-05-07T00:03:09;11.90;99.90
18388;DHT22;9320;50.256;19.026;2023-05-07T00:05:38;11.80;99.90
18388;DHT22;9320;50.256;19.026;2023-05-07T00:08:06;11.80;99.90
18388;DHT22;9320;50.256;19.026;2023-05-07T00:10:35;11.70;99.90
18388;DHT22;9320;50.256;19.026;2023-05-07T00:13:03;11.60;99.90
18388;DHT22;9320;50.256;19.026;2023-05-07T00:15:32;11.60;99.90
18388;DHT22;9320;50.256;19.026;2023-05-07T00:17:59;11.50;99.90
18388;DHT22;9320;50.256;19.026;2023-05-07T00:20:27;11.50;99.90
18388;DHT22;9320;50.256;19.026;2023-05-07T00:22:55;11.50;99.90
18388;DHT22;9320;50.256;19.026;2023-05-07T00:25:23;11.60;99.90
18388;DHT22;9320;50.256;19.026;2023-05-07T00:27:53;11.50;99.90
18388;DHT22;9320;50.256;19.026;2023-05-07T00:30:21;11.40;99.90
18388;DHT22;9320;50.256;19.026;2023-05-07T00:32:49;11.40;99.90
18388;DHT22;9320;50.256;19.026;2023-05-07T00:35:17;11.30;99.90
18388;DHT22;9320;50.256;19.026;2023-05-07T00:37:45;11.10;99.90
18388;DHT22;9320;50.256;19.026;2023-05-07T00:40:15;11.00;99.90
18388;DHT22;9320;50.256;19.026;2023-05-07T00:42:43;11.00;99.90
18388;DHT22;9320;50.256;19.026;2023-05-07T00:45:15;11.00;99.90
18388;DHT22;9320;50.256;19.026;2023-05-07T00:47:44;11.00;99.90
18388;DHT22;9320;50.256;19.026;2023-05-07T00:50:12;11.00;99.90
18388;DHT22;9320;50.256;19.026;2023-05-07T00:52:41;10.90;99.90
18388;DHT22;9320;50.256;19.026;2023-05-07T00:55:09;10.90;99.90
18388;DHT22;9320;50.256;19.026;2023-05-07T00:57:39;10.90;99.90
18388;DHT22;9320;50.256;19.026;2023-05-07T01:00:08;10.80;99.90
18388;DHT22;9320;50.256;19.026;2023-05-07T01:02:39;10.80;99.90
18388;DHT22;9320;50.256;19.026;2023-05-07T01:05:09;10.80;99.90
18388;DHT22;9320;50.256;19.026;2023-05-07T01:07:40;10.80;99.90
18388;DHT22;9320;50.256;19.026;2023-05-07T01:10:09;10.90;99.90
18388;DHT22;9320;50.256;19.026;2023-05-07T01:12:39;10.80;99.90
18388;DHT22;9320;50.256;19.026;2023-05-07T01:15:09;10.80;99.90
18388;DHT22;9320;50.256;19.026;2023-05-07T01:17:40;10.80;99.90
18388;DHT22;9320;50.256;19.026;2023-05-07T01:20:10;10.70;99.90
18388;DHT22;9320;50.256;19.026;2023-05-07T01:22:40;10.70;99.90
18388;DHT22;9320;50.256;19.026;2023-05-07T01:25:08;10.60;99.90
18388;DHT22;9320;50.256;19.026;2023-05-07T01:27:36;10.50;99.90
18388;DHT22;9320;50.256;19.026;2023-05-07T01:30:05;10.50;99.90
18388;DHT22;9320;50.256;19.026;2023-05-07T01:32:39;10.50;99.90
18388;DHT22;9320;50.256;19.026;2023-05-07T01:35:11;10.50;99.90
18388;DHT22;9320;50.256;19.026;2023-05-07T01:37:41;10.50;99.90
18388;DHT22;9320;50.256;19.026;2023-05-07T01:40:09;10.50;99.90
18388;DHT22;9320;50.256;19.026;2023-05-07T01:42:38;10.40;99.90
18388;DHT22;9320;50.256;19.026;2023-05-07T01:45:08;10.40;99.90
18388;DHT22;9320;50.256;19.026;2023-05-07T01:47:36;10.50;99.90
18388;DHT22;9320;50.256;19.026;2023-05-07T01:50:06;10.50;99.90
18388;DHT22;9320;50.256;19.026;2023-05-07T01:52:36;10.40;99.90
18388;DHT22;9320;50.256;19.026;2023-05-07T01:55:07;10.40;99.90
18388;DHT22;9320;50.256;19.026;2023-05-07T01:57:35;10.50;99.90
18388;DHT22;9320;50.256;19.026;2023-05-07T02:00:04;10.50;99.90
18388;DHT22;9320;50.256;19.026;2023-05-07T02:02:32;10.50;99.90
18388;DHT22;9320;50.256;19.026;2023-05-07T02:05:01;10.50;99.90
18388;DHT22;9320;50.256;19.026;2023-05-07T02:07:29;10.40;99.90
18388;DHT22;9320;50.256;19.026;2023-05-07T02:09:57;10.40;99.90
18388;DHT22;9320;50.256;19.026;2023-05-07T02:12:26;10.30;99.90
18388;DHT22;9320;50.256;19.026;2023-05-07T02:14:54;10.30;99.90
18388;DHT22;9320;50.256;19.026;2023-05-07T02:17:22;10.40;99.90
18388;DHT22;9320;50.256;19.026;2023-05-07T02:19:51;10.30;99.90
18388;DHT22;9320;50.256;19.026;2023-05-07T02:22:19;10.30;99.90
18388;DHT22;9320;50.256;19.026;2023-05-07T02:24:47;10.40;99.90
18388;DHT22;9320;50.256;19.026;2023-05-07T02:27:15;10.30;99.90
18388;DHT22;9320;50.256;19.026;2023-05-07T02:29:45;10.40;99.90
18388;DHT22;9320;50.256;19.026;2023-05-07T02:32:13;10.40;99.90
18388;DHT22;9320;50.256;19.026;2023-05-07T02:34:41;10.40;99.90
18388;DHT22;9320;50.256;19.026;2023-05-07T02:37:09;10.40;99.90
18388;DHT22;9320;50.256;19.026;2023-05-07T02:39:37;10.40;99.90
18388;DHT22;9320;50.256;19.026;2023-05-07T02:42:05;10.40;99.90
18388;DHT22;9320;50.256;19.026;2023-05-07T02:44:33;10.30;99.90
18388;DHT22;9320;50.256;19.026;2023-05-07T02:47:04;10.30;99.90
18388;DHT22;9320;50.256;19.026;2023-05-07T02:49:34;10.30;99.90
18388;DHT22;9320;50.256;19.026;2023-05-07T02:52:02;10.20;99.90
18388;DHT22;9320;50.256;19.026;2023-05-07T02:54:30;10.20;99.90
18388;DHT22;9320;50.256;19.026;2023-05-07T02:56:59;10.20;99.90
18388;DHT22;9320;50.256;19.026;2023-05-07T02:59:27;10.20;99.90
18388;DHT22;9320;50.256;19.026;2023-05-07T03:01:55;10.20;99.90
18388;DHT22;9320;50.256;19.026;2023-05-07T03:04:24;10.20;99.90
18388;DHT22;9320;50.256;19.026;2023-05-07T03:06:53;10.20;99.90
18388;DHT22;9320;50.256;19.026;2023-05-07T03:09:21;10.20;99.90
18388;DHT22;9320;50.256;19.026;2023-05-07T03:11:49;10.20;99.90
18388;DHT22;9320;50.256;19.026;2023-05-07T03:14:17;10.20;99.90
18388;DHT22;9320;50.256;19.026;2023-05-07T03:16:45;10.20;99.90
18388;DHT22;9320;50.256;19.026;2023-05-07T03:19:13;10.30;99.90
18388;DHT22;9320;50.256;19.026;2023-05-07T03:21:42;10.10;99.90
18388;DHT22;9320;50.256;19.026;2023-05-07T03:24:10;10.20;99.90
18388;DHT22;9320;50.256;19.026;2023-05-07T03:26:38;10.30;99.90
18388;DHT22;9320;50.256;19.026;2023-05-07T03:29:06;10.20;99.90
18388;DHT22;9320;50.256;19.026;2023-05-07T03:31:34;10.20;99.90
18388;DHT22;9320;50.256;19.026;2023-05-07T03:34:02;10.20;99.90
18388;DHT22;9320;50.256;19.026;2023-05-07T03:36:30;10.20;99.90
18388;DHT22;9320;50.256;19.026;2023-05-07T03:39:00;10.10;99.90
18388;DHT22;9320;50.256;19.026;2023-05-07T03:41:27;10.00;99.90
18388;DHT22;9320;50.256;19.026;2023-05-07T03:43:56;10.00;99.90
18388;DHT22;9320;50.256;19.026;2023-05-07T03:46:24;9.90;99.90
18388;DHT22;9320;50.256;19.026;2023-05-07T03:48:53;9.90;99.90
18388;DHT22;9320;50.256;19.026;2023-05-07T03:51:21;9.70;99.90
18388;DHT22;9320;50.256;19.026;2023-05-07T03:53:49;9.70;99.90
18388;DHT22;9320;50.256;19.026;2023-05-07T03:56:20;9.70;99.90
18388;DHT22;9320;50.256;19.026;2023-05-07T03:58:48;9.70;99.90
18388;DHT22;9320;50.256;19.026;2023-05-07T04:01:16;9.70;99.90
18388;DHT22;9320;50.256;19.026;2023-05-07T04:03:45;9.70;99.90
18388;DHT22;9320;50.256;19.026;2023-05-07T04:06:13;9.70;99.90
18388;DHT22;9320;50.256;19.026;2023-05-07T04:08:41;9.60;99.90
18388;DHT22;9320;50.256;19.026;2023-05-07T04:11:09;9.70;99.90
18388;DHT22;9320;50.256;19.026;2023-05-07T04:13:38;9.60;99.90
18388;DHT22;9320;50.256;19.026;2023-05-07T04:16:07;9.60;99.90
18388;DHT22;9320;50.256;19.026;2023-05-07T04:18:35;9.60;99.90
18388;DHT22;9320;50.256;19.026;2023-05-07T04:21:03;9.50;99.90
18388;DHT22;9320;50.256;19.026;2023-05-07T04:23:31;9.60;99.90
18388;DHT22;9320;50.256;19.026;2023-05-07T04:25:59;9.60;99.90
18388;DHT22;9320;50.256;19.026;2023-05-07T04:28:28;9.70;99.90
18388;DHT22;9320;50.256;19.026;2023-05-07T04:30:57;9.60;99.90
18388;DHT22;9320;50.256;19.026;2023-05-07T04:33:25;9.60;99.90
18388;DHT22;9320;50.256;19.026;2023-05-07T04:35:53;9.40;99.90
18388;DHT22;9320;50.256;19.026;2023-05-07T04:38:21;9.30;99.90
18388;DHT22;9320;50.256;19.026;2023-05-07T04:40:50;9.20;99.90
18388;DHT22;9320;50.256;19.026;2023-05-07T04:43:18;9.20;99.90
18388;DHT22;9320;50.256;19.026;2023-05-07T04:45:46;9.30;99.90
18388;DHT22;9320;50.256;19.026;2023-05-07T04:48:17;9.20;99.90
18388;DHT22;9320;50.256;19.026;2023-05-07T04:50:47;9.20;99.90
18388;DHT22;9320;50.256;19.026;2023-05-07T04:53:16;9.20;99.90
18388;DHT22;9320;50.256;19.026;2023-05-07T04:55:44;9.10;99.90
18388;DHT22;9320;50.256;19.026;2023-05-07T04:58:12;9.10;99.90
18388;DHT22;9320;50.256;19.026;2023-05-07T05:00:41;9.20;99.90
18388;DHT22;9320;50.256;19.026;2023-05-07T05:03:10;9.20;99.90
18388;DHT22;9320;50.256;19.026;2023-05-07T05:05:40;9.30;99.90
18388;DHT22;9320;50.256;19.026;2023-05-07T05:08:08;9.50;99.90
18388;DHT22;9320;50.256;19.026;2023-05-07T05:10:36;9.50;99.90
18388;DHT22;9320;50.256;19.026;2023-05-07T05:13:04;9.50;99.90
18388;DHT22;9320;50.256;19.026;2023-05-07T05:15:32;9.60;99.90
18388;DHT22;9320;50.256;19.026;2023-05-07T05:18:00;9.70;99.90
18388;DHT22;9320;50.256;19.026;2023-05-07T05:20:28;9.70;99.90
18388;DHT22;9320;50.256;19.026;2023-05-07T05:22:58;9.50;99.90
18388;DHT22;9320;50.256;19.026;2023-05-07T05:25:26;9.60;99.90
18388;DHT22;9320;50.256;19.026;2023-05-07T05:27:54;9.70;99.90
18388;DHT22;9320;50.256;19.026;2023-05-07T05:30:22;9.70;99.90
18388;DHT22;9320;50.256;19.026;2023-05-07T05:32:50;9.60;99.90
18388;DHT22;9320;50.256;19.026;2023-05-07T05:35:18;9.40;99.90
18388;DHT22;9320;50.256;19.026;2023-05-07T05:37:46;9.20;99.90
18388;DHT22;9320;50.256;19.026;2023-05-07T05:40:16;9.20;99.90
18388;DHT22;9320;50.256;19.026;2023-05-07T05:42:44;9.20;99.90
18388;DHT22;9320;50.256;19.026;2023-05-07T05:45:13;9.30;99.90
18388;DHT22;9320;50.256;19.026;2023-05-07T05:47:41;9.40;99.90
18388;DHT22;9320;50.256;19.026;2023-05-07T05:50:09;9.50;99.90
18388;DHT22;9320;50.256;19.026;2023-05-07T05:52:38;9.50;99.90
18388;DHT22;9320;50.256;19.026;2023-05-07T05:55:08;9.50;99.90
18388;DHT22;9320;50.256;19.026;2023-05-07T05:57:38;9.30;99.90
18388;DHT22;9320;50.256;19.026;2023-05-07T06:00:07;9.30;99.90
18388;DHT22;9320;50.256;19.026;2023-05-07T06:02:36;9.30;99.90
18388;DHT22;9320;50.256;19.026;2023-05-07T06:05:05;9.30;99.90
18388;DHT22;9320;50.256;19.026;2023-05-07T06:07:33;9.30;99.90
18388;DHT22;9320;50.256;19.026;2023-05-07T06:10:01;9.20;99.90
18388;DHT22;9320;50.256;19.026;2023-05-07T06:12:29;9.10;99.90
18388;DHT22;9320;50.256;19.026;2023-05-07T06:14:58;9.20;99.90
18388;DHT22;9320;50.256;19.026;2023-05-07T06:17:26;9.20;99.90
18388;DHT22;9320;50.256;19.026;2023-05-07T06:19:54;9.20;99.90
18388;DHT22;9320;50.256;19.026;2023-05-07T06:22:22;9.30;99.90
18388;DHT22;9320;50.256;19.026;2023-05-07T06:24:50;9.30;99.90
18388;DHT22;9320;50.256;19.026;2023-05-07T06:27:18;9.30;99.90
18388;DHT22;9320;50.256;19.026;2023-05-07T06:29:47;9.20;99.90
18388;DHT22;9320;50.256;19.026;2023-05-07T06:32:18;9.10;99.90
18388;DHT22;9320;50.256;19.026;2023-05-07T06:34:46;8.90;99.90
18388;DHT22;9320;50.256;19.026;2023-05-07T06:37:14;9.00;99.90
18388;DHT22;9320;50.256;19.026;2023-05-07T06:39:42;9.10;99.90
18388;DHT22;9320;50.256;19.026;2023-05-07T06:42:10;8.90;99.90
18388;DHT22;9320;50.256;19.026;2023-05-07T06:44:38;8.90;99.90
18388;DHT22;9320;50.256;19.026;2023-05-07T06:47:06;8.70;99.90
18388;DHT22;9320;50.256;19.026;2023-05-07T06:49:35;8.60;99.90
18388;DHT22;9320;50.256;19.026;2023-05-07T06:52:03;8.80;99.90
18388;DHT22;9320;50.256;19.026;2023-05-07T06:54:31;8.80;99.90
18388;DHT22;9320;50.256;19.026;2023-05-07T06:57:00;9.00;99.90
18388;DHT22;9320;50.256;19.026;2023-05-07T06:59:28;9.10;99.90
18388;DHT22;9320;50.256;19.026;2023-05-07T07:01:56;9.00;99.90
18388;DHT22;9320;50.256;19.026;2023-05-07T07:04:24;9.00;99.90
18388;DHT22;9320;50.256;19.026;2023-05-07T07:06:54;9.00;99.90
18388;DHT22;9320;50.256;19.026;2023-05-07T07:09:24;9.00;99.90
18388;DHT22;9320;50.256;19.026;2023-05-07T07:11:52;9.00;99.90
18388;DHT22;9320;50.256;19.026;2023-05-07T07:14:21;9.20;99.90
18388;DHT22;9320;50.256;19.026;2023-05-07T07:16:49;9.20;99.90
18388;DHT22;9320;50.256;19.026;2023-05-07T07:19:17;9.30;99.90
18388;DHT22;9320;50.256;19.026;2023-05-07T07:21:46;9.30;99.90
18388;DHT22;9320;50.256;19.026;2023-05-07T07:24:16;9.40;99.90
18388;DHT22;9320;50.256;19.026;2023-05-07T07:26:47;9.50;99.90
18388;DHT22;9320;50.256;19.026;2023-05-07T07:29:15;9.40;99.90
18388;DHT22;9320;50.256;19.026;2023-05-07T07:31:45;9.50;99.90
18388;DHT22;9320;50.256;19.026;2023-05-07T07:34:13;9.80;99.90
18388;DHT22;9320;50.256;19.026;2023-05-07T07:36:41;10.10;99.90
18388;DHT22;9320;50.256;19.026;2023-05-07T07:39:12;10.00;99.90
18388;DHT22;9320;50.256;19.026;2023-05-07T07:41:42;9.80;99.90
18388;DHT22;9320;50.256;19.026;2023-05-07T07:44:10;9.70;99.90
18388;DHT22;9320;50.256;19.026;2023-05-07T07:46:42;9.60;99.90
18388;DHT22;9320;50.256;19.026;2023-05-07T07:49:10;9.60;99.90
18388;DHT22;9320;50.256;19.026;2023-05-07T07:51:38;9.80;99.90
18388;DHT22;9320;50.256;19.026;2023-05-07T07:54:06;9.60;99.90
18388;DHT22;9320;50.256;19.026;2023-05-07T07:56:34;9.50;99.90
18388;DHT22;9320;50.256;19.026;2023-05-07T07:59:04;9.70;99.90
18388;DHT22;9320;50.256;19.026;2023-05-07T08:01:32;9.60;99.90
18388;DHT22;9320;50.256;19.026;2023-05-07T08:04:00;9.70;99.90
18388;DHT22;9320;50.256;19.026;2023-05-07T08:06:30;9.90;99.90
18388;DHT22;9320;50.256;19.026;2023-05-07T08:08:58;10.10;99.90
18388;DHT22;9320;50.256;19.026;2023-05-07T08:11:26;10.20;99.90
18388;DHT22;9320;50.256;19.026;2023-05-07T08:13:55;10.30;99.90
18388;DHT22;9320;50.256;19.026;2023-05-07T08:16:25;10.00;99.90
18388;DHT22;9320;50.256;19.026;2023-05-07T08:18:53;9.90;99.90
18388;DHT22;9320;50.256;19.026;2023-05-07T08:21:22;10.30;99.90
18388;DHT22;9320;50.256;19.026;2023-05-07T08:23:50;10.40;99.90
18388;DHT22;9320;50.256;19.026;2023-05-07T08:26:18;10.40;99.90
18388;DHT22;9320;50.256;19.026;2023-05-07T08:28:47;10.30;99.90
18388;DHT22;9320;50.256;19.026;2023-05-07T08:31:15;10.50;99.90
18388;DHT22;9320;50.256;19.026;2023-05-07T08:33:44;10.60;99.90
18388;DHT22;9320;50.256;19.026;2023-05-07T08:36:12;10.80;99.90
18388;DHT22;9320;50.256;19.026;2023-05-07T08:38:40;11.00;99.90
18388;DHT22;9320;50.256;19.026;2023-05-07T08:41:10;10.90;99.90
18388;DHT22;9320;50.256;19.026;2023-05-07T08:43:41;10.80;99.90
18388;DHT22;9320;50.256;19.026;2023-05-07T08:46:09;10.90;99.90
18388;DHT22;9320;50.256;19.026;2023-05-07T08:48:38;10.60;99.90
18388;DHT22;9320;50.256;19.026;2023-05-07T08:51:12;10.60;99.90
18388;DHT22;9320;50.256;19.026;2023-05-07T08:53:40;10.70;99.90
18388;DHT22;9320;50.256;19.026;2023-05-07T08:56:09;10.60;99.90
18388;DHT22;9320;50.256;19.026;2023-05-07T08:58:37;10.60;99.90
18388;DHT22;9320;50.256;19.026;2023-05-07T09:01:08;10.90;99.90
18388;DHT22;9320;50.256;19.026;2023-05-07T09:03:37;10.70;99.90
18388;DHT22;9320;50.256;19.026;2023-05-07T09:06:07;10.60;99.90
18388;DHT22;9320;50.256;19.026;2023-05-07T09:08:36;10.60;99.90
18388;DHT22;9320;50.256;19.026;2023-05-07T09:11:04;10.50;99.90
18388;DHT22;9320;50.256;19.026;2023-05-07T09:13:32;10.50;99.90
18388;DHT22;9320;50.256;19.026;2023-05-07T09:16:10;10.50;99.90
18388;DHT22;9320;50.256;19.026;2023-05-07T09:18:41;10.40;99.90
18388;DHT22;9320;50.256;19.026;2023-05-07T09:21:12;10.50;99.90
18388;DHT22;9320;50.256;19.026;2023-05-07T09:23:42;10.50;99.90
18388;DHT22;9320;50.256;19.026;2023-05-07T09:26:10;10.60;99.90
18388;DHT22;9320;50.256;19.026;2023-05-07T09:28:39;10.60;99.90
18388;DHT22;9320;50.256;19.026;2023-05-07T09:31:09;10.40;99.90
18388;DHT22;9320;50.256;19.026;2023-05-07T09:33:38;10.30;99.90
18388;DHT22;9320;50.256;19.026;2023-05-07T09:36:07;10.10;99.90
18388;DHT22;9320;50.256;19.026;2023-05-07T09:38:38;9.50;99.90
18388;DHT22;9320;50.256;19.026;2023-05-07T09:41:07;9.70;99.90
18388;DHT22;9320;50.256;19.026;2023-05-07T09:43:37;9.70;99.90
18388;DHT22;9320;50.256;19.026;2023-05-07T09:46:11;9.60;99.90
18388;DHT22;9320;50.256;19.026;2023-05-07T09:48:41;9.40;99.90
18388;DHT22;9320;50.256;19.026;2023-05-07T09:51:17;9.40;99.90
18388;DHT22;9320;50.256;19.026;2023-05-07T09:53:47;9.40;99.90
18388;DHT22;9320;50.256;19.026;2023-05-07T09:56:16;9.40;99.90
18388;DHT22;9320;50.256;19.026;2023-05-07T09:58:46;9.60;99.90
18388;DHT22;9320;50.256;19.026;2023-05-07T10:01:17;9.70;99.90
18388;DHT22;9320;50.256;19.026;2023-05-07T10:03:49;9.80;99.90
18388;DHT22;9320;50.256;19.026;2023-05-07T10:06:19;9.80;99.90
18388;DHT22;9320;50.256;19.026;2023-05-07T10:08:51;10.10;99.90
18388;DHT22;9320;50.256;19.026;2023-05-07T10:11:19;10.20;99.90
18388;DHT22;9320;50.256;19.026;2023-05-07T10:13:50;9.70;99.90
18388;DHT22;9320;50.256;19.026;2023-05-07T10:16:21;9.70;99.90
18388;DHT22;9320;50.256;19.026;2023-05-07T10:18:49;9.50;99.90
18388;DHT22;9320;50.256;19.026;2023-05-07T10:21:19;9.50;99.90
18388;DHT22;9320;50.256;19.026;2023-05-07T10:23:50;9.60;99.90
18388;DHT22;9320;50.256;19.026;2023-05-07T10:26:20;9.50;99.90
18388;DHT22;9320;50.256;19.026;2023-05-07T10:28:54;9.40;99.90
18388;DHT22;9320;50.256;19.026;2023-05-07T10:34:23;9.30;99.90
18388;DHT22;9320;50.256;19.026;2023-05-07T10:36:53;9.60;99.90
18388;DHT22;9320;50.256;19.026;2023-05-07T10:39:24;9.60;99.90
18388;DHT22;9320;50.256;19.026;2023-05-07T10:41:52;9.50;99.90
18388;DHT22;9320;50.256;19.026;2023-05-07T10:44:26;9.60;99.90
18388;DHT22;9320;50.256;19.026;2023-05-07T10:47:04;9.70;99.90
18388;DHT22;9320;50.256;19.026;2023-05-07T10:49:32;9.90;99.90
18388;DHT22;9320;50.256;19.026;2023-05-07T10:52:16;9.90;99.90
18388;DHT22;9320;50.256;19.026;2023-05-07T10:54:46;10.10;99.90
18388;DHT22;9320;50.256;19.026;2023-05-07T10:57:33;9.90;99.90
18388;DHT22;9320;50.256;19.026;2023-05-07T11:00:02;9.50;99.90
18388;DHT22;9320;50.256;19.026;2023-05-07T11:03:04;9.50;99.90
18388;DHT22;9320;50.256;19.026;2023-05-07T11:05:34;9.60;99.90
18388;DHT22;9320;50.256;19.026;2023-05-07T11:08:05;9.40;99.90
18388;DHT22;9320;50.256;19.026;2023-05-07T11:10:51;9.40;99.90
18388;DHT22;9320;50.256;19.026;2023-05-07T11:13:44;9.40;99.90
18388;DHT22;9320;50.256;19.026;2023-05-07T11:16:19;9.30;99.90
18388;DHT22;9320;50.256;19.026;2023-05-07T11:18:48;9.40;99.90
18388;DHT22;9320;50.256;19.026;2023-05-07T11:21:33;9.40;99.90
18388;DHT22;9320;50.256;19.026;2023-05-07T11:24:02;9.50;99.90
18388;DHT22;9320;50.256;19.026;2023-05-07T11:26:44;9.60;99.90
18388;DHT22;9320;50.256;19.026;2023-05-07T11:29:14;9.60;99.90
18388;DHT22;9320;50.256;19.026;2023-05-07T11:31:44;9.80;99.90
18388;DHT22;9320;50.256;19.026;2023-05-07T11:34:20;10.00;99.90
18388;DHT22;9320;50.256;19.026;2023-05-07T11:36:49;9.90;99.90
18388;DHT22;9320;50.256;19.026;2023-05-07T11:39:24;9.90;99.90
18388;DHT22;9320;50.256;19.026;2023-05-07T11:41:54;10.00;99.90
18388;DHT22;9320;50.256;19.026;2023-05-07T11:44:22;9.60;99.90
18388;DHT22;9320;50.256;19.026;2023-05-07T11:46:50;9.60;99.90
18388;DHT22;9320;50.256;19.026;2023-05-07T11:49:18;9.40;99.90
18388;DHT22;9320;50.256;19.026;2023-05-07T11:51:46;9.50;99.90
18388;DHT22;9320;50.256;19.026;2023-05-07T11:54:17;9.60;99.90
18388;DHT22;9320;50.256;19.026;2023-05-07T11:56:45;9.70;99.90
18388;DHT22;9320;50.256;19.026;2023-05-07T11:59:18;9.80;99.90
18388;DHT22;9320;50.256;19.026;2023-05-07T12:01:46;9.90;99.90
18388;DHT22;9320;50.256;19.026;2023-05-07T12:04:19;9.60;99.90
18388;DHT22;9320;50.256;19.026;2023-05-07T12:06:48;9.50;99.90
18388;DHT22;9320;50.256;19.026;2023-05-07T12:09:17;9.50;99.90
18388;DHT22;9320;50.256;19.026;2023-05-07T12:11:46;9.60;99.90
18388;DHT22;9320;50.256;19.026;2023-05-07T12:14:14;9.50;99.90
18388;DHT22;9320;50.256;19.026;2023-05-07T12:16:45;9.50;99.90
18388;DHT22;9320;50.256;19.026;2023-05-07T12:19:13;9.60;99.90
18388;DHT22;9320;50.256;19.026;2023-05-07T12:21:42;9.60;99.90
18388;DHT22;9320;50.256;19.026;2023-05-07T12:24:10;9.60;99.90
18388;DHT22;9320;50.256;19.026;2023-05-07T12:26:38;9.50;99.90
18388;DHT22;9320;50.256;19.026;2023-05-07T12:29:07;9.50;99.90
18388;DHT22;9320;50.256;19.026;2023-05-07T12:31:35;9.60;99.90
18388;DHT22;9320;50.256;19.026;2023-05-07T12:34:05;9.70;99.90
18388;DHT22;9320;50.256;19.026;2023-05-07T12:36:39;9.90;99.90
18388;DHT22;9320;50.256;19.026;2023-05-07T12:39:08;10.30;99.90
18388;DHT22;9320;50.256;19.026;2023-05-07T12:41:51;10.40;99.90
18388;DHT22;9320;50.256;19.026;2023-05-07T12:44:22;10.40;99.90
18388;DHT22;9320;50.256;19.026;2023-05-07T12:46:50;10.70;99.90
18388;DHT22;9320;50.256;19.026;2023-05-07T12:49:20;10.90;99.90
18388;DHT22;9320;50.256;19.026;2023-05-07T12:51:51;10.90;99.90
18388;DHT22;9320;50.256;19.026;2023-05-07T12:54:29;10.90;99.90
18388;DHT22;9320;50.256;19.026;2023-05-07T12:57:01;10.60;99.90
18388;DHT22;9320;50.256;19.026;2023-05-07T12:59:33;10.40;99.90
18388;DHT22;9320;50.256;19.026;2023-05-07T13:02:02;10.20;99.90
18388;DHT22;9320;50.256;19.026;2023-05-07T13:04:32;10.20;99.90
18388;DHT22;9320;50.256;19.026;2023-05-07T13:07:00;10.30;99.90
18388;DHT22;9320;50.256;19.026;2023-05-07T13:09:29;10.40;99.90
18388;DHT22;9320;50.256;19.026;2023-05-07T13:11:57;10.50;99.90
18388;DHT22;9320;50.256;19.026;2023-05-07T13:14:26;10.40;99.90
18388;DHT22;9320;50.256;19.026;2023-05-07T13:16:54;10.20;99.90
18388;DHT22;9320;50.256;19.026;2023-05-07T13:19:22;10.00;99.90
18388;DHT22;9320;50.256;19.026;2023-05-07T13:21:52;9.90;99.90
18388;DHT22;9320;50.256;19.026;2023-05-07T13:24:20;9.80;99.90
18388;DHT22;9320;50.256;19.026;2023-05-07T13:26:48;10.00;99.90
18388;DHT22;9320;50.256;19.026;2023-05-07T13:29:17;9.90;99.90
18388;DHT22;9320;50.256;19.026;2023-05-07T13:31:45;10.00;99.90
18388;DHT22;9320;50.256;19.026;2023-05-07T13:34:15;10.00;99.90
18388;DHT22;9320;50.256;19.026;2023-05-07T13:36:43;9.90;99.90
18388;DHT22;9320;50.256;19.026;2023-05-07T13:39:12;10.00;99.90
18388;DHT22;9320;50.256;19.026;2023-05-07T13:41:41;9.90;99.90
18388;DHT22;9320;50.256;19.026;2023-05-07T13:44:08;9.70;99.90
18388;DHT22;9320;50.256;19.026;2023-05-07T13:46:37;9.90;99.90
18388;DHT22;9320;50.256;19.026;2023-05-07T13:49:04;10.00;99.90
18388;DHT22;9320;50.256;19.026;2023-05-07T13:51:32;9.80;99.90
18388;DHT22;9320;50.256;19.026;2023-05-07T13:54:01;9.60;99.90
18388;DHT22;9320;50.256;19.026;2023-05-07T13:56:31;9.70;99.90
18388;DHT22;9320;50.256;19.026;2023-05-07T13:58:59;9.70;99.90
18388;DHT22;9320;50.256;19.026;2023-05-07T14:01:27;9.70;99.90
18388;DHT22;9320;50.256;19.026;2023-05-07T14:03:56;9.60;99.90
18388;DHT22;9320;50.256;19.026;2023-05-07T14:06:26;9.70;99.90
18388;DHT22;9320;50.256;19.026;2023-05-07T14:08:54;9.60;99.90
18388;DHT22;9320;50.256;19.026;2023-05-07T14:11:24;9.60;99.90
18388;DHT22;9320;50.256;19.026;2023-05-07T14:13:54;9.60;99.90
18388;DHT22;9320;50.256;19.026;2023-05-07T14:16:23;9.50;99.90
18388;DHT22;9320;50.256;19.026;2023-05-07T14:18:51;9.40;99.90
18388;DHT22;9320;50.256;19.026;2023-05-07T14:21:24;9.50;99.90
18388;DHT22;9320;50.256;19.026;2023-05-07T14:23:52;9.50;99.90
18388;DHT22;9320;50.256;19.026;2023-05-07T14:26:20;9.60;99.90
18388;DHT22;9320;50.256;19.026;2023-05-07T14:28:49;9.70;99.90
18388;DHT22;9320;50.256;19.026;2023-05-07T14:31:18;9.80;99.90
18388;DHT22;9320;50.256;19.026;2023-05-07T14:33:47;9.80;99.90
18388;DHT22;9320;50.256;19.026;2023-05-07T14:36:16;9.80;99.90
18388;DHT22;9320;50.256;19.026;2023-05-07T14:38:47;9.70;99.90
18388;DHT22;9320;50.256;19.026;2023-05-07T14:41:15;9.60;99.90
18388;DHT22;9320;50.256;19.026;2023-05-07T14:43:43;9.90;99.90
18388;DHT22;9320;50.256;19.026;2023-05-07T14:46:18;10.10;99.90
18388;DHT22;9320;50.256;19.026;2023-05-07T14:48:46;10.30;99.90
18388;DHT22;9320;50.256;19.026;2023-05-07T14:51:14;10.40;99.90
18388;DHT22;9320;50.256;19.026;2023-05-07T14:53:42;10.40;99.90
18388;DHT22;9320;50.256;19.026;2023-05-07T14:56:10;10.30;99.90
18388;DHT22;9320;50.256;19.026;2023-05-07T14:58:38;10.20;99.90
18388;DHT22;9320;50.256;19.026;2023-05-07T15:01:06;10.00;99.90
18388;DHT22;9320;50.256;19.026;2023-05-07T15:03:36;10.10;99.90
18388;DHT22;9320;50.256;19.026;2023-05-07T15:06:04;10.00;99.90
18388;DHT22;9320;50.256;19.026;2023-05-07T15:08:32;10.10;99.90
18388;DHT22;9320;50.256;19.026;2023-05-07T15:11:00;9.90;99.90
18388;DHT22;9320;50.256;19.026;2023-05-07T15:13:28;9.70;99.90
18388;DHT22;9320;50.256;19.026;2023-05-07T15:15:56;9.90;99.90
18388;DHT22;9320;50.256;19.026;2023-05-07T15:18:24;9.90;99.90
18388;DHT22;9320;50.256;19.026;2023-05-07T15:20:55;9.70;99.90
18388;DHT22;9320;50.256;19.026;2023-05-07T15:23:24;9.30;99.90
18388;DHT22;9320;50.256;19.026;2023-05-07T15:25:52;8.90;99.90
18388;DHT22;9320;50.256;19.026;2023-05-07T15:28:21;8.80;99.90
18388;DHT22;9320;50.256;19.026;2023-05-07T15:30:49;8.80;99.90
18388;DHT22;9320;50.256;19.026;2023-05-07T15:33:17;8.70;99.90
18388;DHT22;9320;50.256;19.026;2023-05-07T15:35:45;8.60;99.90
18388;DHT22;9320;50.256;19.026;2023-05-07T15:38:14;8.70;99.90
18388;DHT22;9320;50.256;19.026;2023-05-07T15:40:42;8.80;99.90
18388;DHT22;9320;50.256;19.026;2023-05-07T15:43:11;8.70;99.90
18388;DHT22;9320;50.256;19.026;2023-05-07T15:45:40;8.70;99.90
18388;DHT22;9320;50.256;19.026;2023-05-07T15:48:09;8.90;99.90
18388;DHT22;9320;50.256;19.026;2023-05-07T15:50:37;9.00;99.90
18388;DHT22;9320;50.256;19.026;2023-05-07T15:53:05;9.00;99.90
18388;DHT22;9320;50.256;19.026;2023-05-07T15:55:35;9.20;99.90